sensor_id;sensor_type;location;lat;lon;timestamp;pressure;altitude;pressure_sealevel;temperature;humidity
46379;BME280;32084;42.254;22.744;2023-02-28T00:01:29;95625.50;;;7.27;93.66
46379;BME280;32084;42.254;22.744;2023-02-28T00:03:55;95626.09;;;7.51;93.82
46379;BME280;32084;42.254;22.744;2023-02-28T00:06:21;95626.91;;;7.73;93.28
46379;BME280;32084;42.254;22.744;2023-02-28T00:08:47;95625.50;;;7.69;92.64
46379;BME280;32084;42.254;22.744;2023-02-28T00:11:14;95624.53;;;7.79;93.38
46379;BME280;32084;42.254;22.744;2023-02-28T00:13:41;95633.91;;;7.95;93.83
46379;BME280;32084;42.254;22.744;2023-02-28T00:16:09;95642.34;;;8.10;93.28
46379;BME280;32084;42.254;22.744;2023-02-28T00:18:35;95639.59;;;8.21;94.02
46379;BME280;32084;42.254;22.744;2023-02-28T00:21:01;95635.63;;;8.15;92.30
46379;BME280;32084;42.254;22.744;2023-02-28T00:23:29;95628.25;;;7.88;91.65
46379;BME280;32084;42.254;22.744;2023-02-28T00:25:55;95627.63;;;7.75;92.28
46379;BME280;32084;42.254;22.744;2023-02-28T00:28:21;95632.84;;;7.86;93.01
46379;BME280;32084;42.254;22.744;2023-02-28T00:30:47;95631.53;;;8.01;93.67
46379;BME280;32084;42.254;22.744;2023-02-28T00:33:13;95633.84;;;8.16;93.53
46379;BME280;32084;42.254;22.744;2023-02-28T00:35:39;95631.22;;;8.26;93.36
46379;BME280;32084;42.254;22.744;2023-02-28T00:38:06;95627.56;;;8.36;93.19
46379;BME280;32084;42.254;22.744;2023-02-28T00:40:32;95631.03;;;8.48;92.79
46379;BME280;32084;42.254;22.744;2023-02-28T00:42:58;95627.03;;;8.33;92.14
46379;BME280;32084;42.254;22.744;2023-02-28T00:45:24;95620.69;;;8.24;92.90
46379;BME280;32084;42.254;22.744;2023-02-28T00:47:50;95620.25;;;8.29;92.75
46379;BME280;32084;42.254;22.744;2023-02-28T00:50:19;95631.22;;;8.26;93.28
46379;BME280;32084;42.254;22.744;2023-02-28T00:52:46;95627.53;;;8.27;92.91
46379;BME280;32084;42.254;22.744;2023-02-28T00:55:12;95625.31;;;8.32;92.63
46379;BME280;32084;42.254;22.744;2023-02-28T00:57:38;95620.25;;;8.29;93.09
46379;BME280;32084;42.254;22.744;2023-02-28T01:00:04;95624.88;;;8.27;93.44
46379;BME280;32084;42.254;22.744;2023-02-28T01:02:31;95625.28;;;8.12;93.65
46379;BME280;32084;42.254;22.744;2023-02-28T01:04:57;95628.41;;;7.96;94.50
46379;BME280;32084;42.254;22.744;2023-02-28T01:07:24;95629.56;;;8.04;95.25
46379;BME280;32084;42.254;22.744;2023-02-28T01:09:50;95624.31;;;8.23;95.14
46379;BME280;32084;42.254;22.744;2023-02-28T01:12:16;95619.50;;;8.48;94.63
46379;BME280;32084;42.254;22.744;2023-02-28T01:14:42;95614.47;;;8.54;95.56
46379;BME280;32084;42.254;22.744;2023-02-28T01:17:08;95626.66;;;8.47;93.32
46379;BME280;32084;42.254;22.744;2023-02-28T01:19:34;95611.19;;;8.41;93.62
46379;BME280;32084;42.254;22.744;2023-02-28T01:22:01;95605.78;;;8.52;93.14
46379;BME280;32084;42.254;22.744;2023-02-28T01:24:28;95602.69;;;8.47;95.00
46379;BME280;32084;42.254;22.744;2023-02-28T01:30:54;95613.94;;;8.70;93.87
46379;BME280;32084;42.254;22.744;2023-02-28T01:33:20;95612.66;;;8.74;93.44
46379;BME280;32084;42.254;22.744;2023-02-28T01:35:46;95608.47;;;8.82;93.34
46379;BME280;32084;42.254;22.744;2023-02-28T01:38:12;95619.72;;;8.95;92.05
46379;BME280;32084;42.254;22.744;2023-02-28T01:40:38;95617.34;;;9.11;91.17
46379;BME280;32084;42.254;22.744;2023-02-28T01:43:05;95610.75;;;9.06;90.87
46379;BME280;32084;42.254;22.744;2023-02-28T01:45:35;95621.53;;;9.04;90.93
46379;BME280;32084;42.254;22.744;2023-02-28T01:48:02;95618.03;;;9.04;90.59
46379;BME280;32084;42.254;22.744;2023-02-28T01:50:30;95613.69;;;8.93;91.71
46379;BME280;32084;42.254;22.744;2023-02-28T01:52:58;95622.09;;;8.88;91.93
46379;BME280;32084;42.254;22.744;2023-02-28T01:55:25;95612.72;;;8.84;92.07
46379;BME280;32084;42.254;22.744;2023-02-28T01:57:55;95610.56;;;8.78;92.09
46379;BME280;32084;42.254;22.744;2023-02-28T02:00:23;95613.25;;;8.78;92.32
46379;BME280;32084;42.254;22.744;2023-02-28T02:02:51;95619.84;;;8.74;92.03
46379;BME280;32084;42.254;22.744;2023-02-28T02:05:20;95622.06;;;8.69;92.13
46379;BME280;32084;42.254;22.744;2023-02-28T02:07:47;95624.19;;;8.65;92.54
46379;BME280;32084;42.254;22.744;2023-02-28T02:10:16;95620.66;;;8.55;92.31
46379;BME280;32084;42.254;22.744;2023-02-28T02:18:13;95624.53;;;8.41;93.42
46379;BME280;32084;42.254;22.744;2023-02-28T02:23:31;95624.16;;;8.15;91.68
46379;BME280;32084;42.254;22.744;2023-02-28T02:28:46;95631.53;;;8.01;93.58
46379;BME280;32084;42.254;22.744;2023-02-28T02:31:41;95632.69;;;8.09;93.99
46379;BME280;32084;42.254;22.744;2023-02-28T02:36:48;95628.16;;;7.99;91.88
46379;BME280;32084;42.254;22.744;2023-02-28T02:39:19;95630.91;;;7.88;92.34
46379;BME280;32084;42.254;22.744;2023-02-28T02:41:51;95628.78;;;7.82;92.32
46379;BME280;32084;42.254;22.744;2023-02-28T02:46:47;95639.81;;;7.56;90.85
46379;BME280;32084;42.254;22.744;2023-02-28T02:49:30;95643.31;;;7.57;92.29
46379;BME280;32084;42.254;22.744;2023-02-28T02:51:58;95643.53;;;7.65;92.39
46379;BME280;32084;42.254;22.744;2023-02-28T02:54:28;95641.88;;;7.74;92.24
46379;BME280;32084;42.254;22.744;2023-02-28T02:56:55;95647.28;;;7.62;91.12
46379;BME280;32084;42.254;22.744;2023-02-28T02:59:22;95645.50;;;7.42;90.29
46379;BME280;32084;42.254;22.744;2023-02-28T03:01:52;95650.28;;;7.27;91.05
46379;BME280;32084;42.254;22.744;2023-02-28T03:04:20;95656.19;;;7.10;90.95
46379;BME280;32084;42.254;22.744;2023-02-28T03:06:47;95657.00;;;7.10;92.16
46379;BME280;32084;42.254;22.744;2023-02-28T03:09:13;95658.69;;;7.11;91.20
46379;BME280;32084;42.254;22.744;2023-02-28T03:11:39;95658.59;;;7.01;90.29
46379;BME280;32084;42.254;22.744;2023-02-28T03:22:15;95662.72;;;6.62;92.64
46379;BME280;32084;42.254;22.744;2023-02-28T03:27:11;95676.81;;;6.85;92.53
46379;BME280;32084;42.254;22.744;2023-02-28T03:29:46;95680.78;;;6.91;91.40
46379;BME280;32084;42.254;22.744;2023-02-28T03:32:18;95678.66;;;6.62;90.79
46379;BME280;32084;42.254;22.744;2023-02-28T03:34:49;95673.84;;;6.56;91.35
46379;BME280;32084;42.254;22.744;2023-02-28T03:37:19;95673.13;;;6.42;90.61
46379;BME280;32084;42.254;22.744;2023-02-28T03:39:49;95668.94;;;6.29;90.80
46379;BME280;32084;42.254;22.744;2023-02-28T03:42:20;95666.16;;;6.30;91.26
46379;BME280;32084;42.254;22.744;2023-02-28T03:44:51;95672.91;;;6.34;90.90
46379;BME280;32084;42.254;22.744;2023-02-28T03:47:41;95663.94;;;6.47;91.70
46379;BME280;32084;42.254;22.744;2023-02-28T03:50:10;95669.03;;;6.38;91.03
46379;BME280;32084;42.254;22.744;2023-02-28T03:53:00;95672.69;;;6.26;90.37
46379;BME280;32084;42.254;22.744;2023-02-28T03:55:32;95665.44;;;6.17;90.43
46379;BME280;32084;42.254;22.744;2023-02-28T04:00:39;95674.75;;;6.11;89.94
46379;BME280;32084;42.254;22.744;2023-02-28T04:03:07;95671.94;;;5.90;89.48
46379;BME280;32084;42.254;22.744;2023-02-28T04:05:33;95677.91;;;5.58;89.68
46379;BME280;32084;42.254;22.744;2023-02-28T04:08:05;95674.63;;;5.43;91.03
46379;BME280;32084;42.254;22.744;2023-02-28T04:10:31;95675.47;;;5.44;91.98
46379;BME280;32084;42.254;22.744;2023-02-28T04:12:57;95681.19;;;5.62;92.08
46379;BME280;32084;42.254;22.744;2023-02-28T04:15:23;95681.81;;;5.88;92.49
46379;BME280;32084;42.254;22.744;2023-02-28T04:17:50;95684.88;;;6.06;91.42
46379;BME280;32084;42.254;22.744;2023-02-28T04:20:16;95698.97;;;6.29;92.14
46379;BME280;32084;42.254;22.744;2023-02-28T04:22:42;95701.63;;;6.29;89.74
46379;BME280;32084;42.254;22.744;2023-02-28T04:25:08;95692.22;;;6.14;90.38
46379;BME280;32084;42.254;22.744;2023-02-28T04:27:34;95696.59;;;6.26;90.58
46379;BME280;32084;42.254;22.744;2023-02-28T04:30:00;95708.88;;;6.27;89.63
46379;BME280;32084;42.254;22.744;2023-02-28T04:32:26;95706.00;;;6.30;89.75
46379;BME280;32084;42.254;22.744;2023-02-28T04:34:52;95701.28;;;6.22;89.79
46379;BME280;32084;42.254;22.744;2023-02-28T04:37:18;95699.47;;;6.00;89.82
46379;BME280;32084;42.254;22.744;2023-02-28T04:39:44;95696.09;;;5.98;91.25
46379;BME280;32084;42.254;22.744;2023-02-28T04:42:11;95697.66;;;6.12;91.12
46379;BME280;32084;42.254;22.744;2023-02-28T04:44:37;95693.44;;;6.21;91.24
46379;BME280;32084;42.254;22.744;2023-02-28T04:47:03;95700.06;;;6.38;91.17
46379;BME280;32084;42.254;22.744;2023-02-28T04:49:29;95695.81;;;6.47;91.65
46379;BME280;32084;42.254;22.744;2023-02-28T04:51:55;95692.31;;;6.46;91.62
46379;BME280;32084;42.254;22.744;2023-02-28T04:54:21;95690.28;;;6.50;91.31
46379;BME280;32084;42.254;22.744;2023-02-28T04:56:47;95701.72;;;6.61;92.18
46379;BME280;32084;42.254;22.744;2023-02-28T04:59:15;95702.84;;;6.48;89.95
46379;BME280;32084;42.254;22.744;2023-02-28T05:01:44;95709.97;;;6.36;90.97
46379;BME280;32084;42.254;22.744;2023-02-28T05:04:11;95703.34;;;6.41;91.46
46379;BME280;32084;42.254;22.744;2023-02-28T05:06:36;95706.69;;;6.55;92.09
46379;BME280;32084;42.254;22.744;2023-02-28T05:09:02;95702.84;;;6.48;92.80
46379;BME280;32084;42.254;22.744;2023-02-28T05:11:30;95703.44;;;6.06;88.50
46379;BME280;32084;42.254;22.744;2023-02-28T05:14:08;95711.75;;;5.90;92.06
46379;BME280;32084;42.254;22.744;2023-02-28T05:16:35;95710.03;;;5.78;94.18
46379;BME280;32084;42.254;22.744;2023-02-28T05:19:01;95711.91;;;6.00;93.61
46379;BME280;32084;42.254;22.744;2023-02-28T05:21:31;95712.38;;;6.16;93.15
46379;BME280;32084;42.254;22.744;2023-02-28T05:23:58;95725.53;;;6.40;92.44
46379;BME280;32084;42.254;22.744;2023-02-28T05:26:25;95733.13;;;6.56;92.80
46379;BME280;32084;42.254;22.744;2023-02-28T05:28:51;95736.38;;;6.60;92.14
46379;BME280;32084;42.254;22.744;2023-02-28T05:31:17;95729.19;;;6.51;91.12
46379;BME280;32084;42.254;22.744;2023-02-28T05:33:44;95737.47;;;6.57;91.88
46379;BME280;32084;42.254;22.744;2023-02-28T05:36:10;95740.38;;;6.65;92.12
46379;BME280;32084;42.254;22.744;2023-02-28T05:38:36;95747.16;;;6.47;91.46
46379;BME280;32084;42.254;22.744;2023-02-28T05:41:08;95748.34;;;6.54;92.69
46379;BME280;32084;42.254;22.744;2023-02-28T05:43:35;95750.25;;;6.75;92.72
46379;BME280;32084;42.254;22.744;2023-02-28T05:46:07;95757.63;;;6.60;91.70
46379;BME280;32084;42.254;22.744;2023-02-28T05:48:35;95759.06;;;6.75;92.05
46379;BME280;32084;42.254;22.744;2023-02-28T05:51:01;95757.59;;;6.94;92.12
46379;BME280;32084;42.254;22.744;2023-02-28T05:53:28;95763.88;;;7.04;92.69
46379;BME280;32084;42.254;22.744;2023-02-28T05:55:54;95763.84;;;7.15;92.19
46379;BME280;32084;42.254;22.744;2023-02-28T05:58:21;95760.78;;;7.31;91.50
46379;BME280;32084;42.254;22.744;2023-02-28T06:00:47;95759.63;;;7.45;91.71
46379;BME280;32084;42.254;22.744;2023-02-28T06:03:13;95760.63;;;7.44;91.11
46379;BME280;32084;42.254;22.744;2023-02-28T06:05:39;95762.25;;;7.56;91.10
46379;BME280;32084;42.254;22.744;2023-02-28T06:08:05;95772.78;;;7.79;90.96
46379;BME280;32084;42.254;22.744;2023-02-28T06:10:33;95770.78;;;7.92;90.32
46379;BME280;32084;42.254;22.744;2023-02-28T06:13:00;95769.69;;;8.16;88.67
46379;BME280;32084;42.254;22.744;2023-02-28T06:15:28;95774.06;;;8.48;87.96
46379;BME280;32084;42.254;22.744;2023-02-28T06:17:54;95767.81;;;8.58;87.41
46379;BME280;32084;42.254;22.744;2023-02-28T06:20:22;95778.25;;;8.40;88.93
46379;BME280;32084;42.254;22.744;2023-02-28T06:22:49;95785.06;;;8.33;89.26
46379;BME280;32084;42.254;22.744;2023-02-28T06:25:16;95781.81;;;8.30;89.92
46379;BME280;32084;42.254;22.744;2023-02-28T06:27:42;95786.47;;;8.37;91.73
46379;BME280;32084;42.254;22.744;2023-02-28T06:30:10;95783.31;;;8.44;92.09
46379;BME280;32084;42.254;22.744;2023-02-28T06:32:37;95787.47;;;8.57;91.40
46379;BME280;32084;42.254;22.744;2023-02-28T06:35:03;95791.56;;;8.62;91.17
46379;BME280;32084;42.254;22.744;2023-02-28T06:37:30;95785.31;;;8.51;91.95
46379;BME280;32084;42.254;22.744;2023-02-28T06:39:57;95791.50;;;8.52;92.93
46379;BME280;32084;42.254;22.744;2023-02-28T06:42:23;95794.72;;;8.55;92.68
46379;BME280;32084;42.254;22.744;2023-02-28T06:44:57;95790.25;;;8.56;93.11
46379;BME280;32084;42.254;22.744;2023-02-28T06:47:24;95793.00;;;8.45;93.59
46379;BME280;32084;42.254;22.744;2023-02-28T06:49:50;95793.78;;;8.35;93.85
46379;BME280;32084;42.254;22.744;2023-02-28T06:52:16;95795.00;;;8.31;94.00
46379;BME280;32084;42.254;22.744;2023-02-28T06:54:42;95792.47;;;8.30;94.21
46379;BME280;32084;42.254;22.744;2023-02-28T06:57:08;95788.56;;;8.34;94.40
46379;BME280;32084;42.254;22.744;2023-02-28T06:59:34;95783.06;;;8.47;93.80
46379;BME280;32084;42.254;22.744;2023-02-28T07:02:01;95785.69;;;8.68;93.51
46379;BME280;32084;42.254;22.744;2023-02-28T07:04:28;95786.94;;;8.64;93.35
46379;BME280;32084;42.254;22.744;2023-02-28T07:06:54;95800.03;;;8.76;93.85
46379;BME280;32084;42.254;22.744;2023-02-28T07:09:22;95794.47;;;8.99;91.12
46379;BME280;32084;42.254;22.744;2023-02-28T07:11:48;95798.53;;;9.63;89.49
46379;BME280;32084;42.254;22.744;2023-02-28T07:14:14;95792.38;;;9.82;87.82
46379;BME280;32084;42.254;22.744;2023-02-28T07:16:40;95797.72;;;9.82;88.70
46379;BME280;32084;42.254;22.744;2023-02-28T07:19:06;95791.38;;;10.03;88.14
46379;BME280;32084;42.254;22.744;2023-02-28T07:21:32;95788.44;;;10.06;86.92
46379;BME280;32084;42.254;22.744;2023-02-28T07:23:58;95792.38;;;9.92;88.28
46379;BME280;32084;42.254;22.744;2023-02-28T07:26:24;95798.28;;;9.95;88.44
46379;BME280;32084;42.254;22.744;2023-02-28T07:28:50;95788.16;;;9.70;88.78
46379;BME280;32084;42.254;22.744;2023-02-28T07:31:17;95788.56;;;9.55;90.54
46379;BME280;32084;42.254;22.744;2023-02-28T07:33:44;95791.81;;;9.59;89.21
46379;BME280;32084;42.254;22.744;2023-02-28T07:36:11;95794.47;;;9.69;89.39
46379;BME280;32084;42.254;22.744;2023-02-28T07:38:41;95792.66;;;9.89;89.24
46379;BME280;32084;42.254;22.744;2023-02-28T07:41:08;95795.03;;;9.72;88.27
46379;BME280;32084;42.254;22.744;2023-02-28T07:43:34;95795.88;;;9.53;89.93
46379;BME280;32084;42.254;22.744;2023-02-28T07:46:04;95797.97;;;9.60;89.81
46379;BME280;32084;42.254;22.744;2023-02-28T07:48:31;95799.94;;;9.57;90.34
46379;BME280;32084;42.254;22.744;2023-02-28T07:50:57;95801.09;;;9.65;90.47
46379;BME280;32084;42.254;22.744;2023-02-28T07:53:24;95798.41;;;9.74;88.53
46379;BME280;32084;42.254;22.744;2023-02-28T07:55:50;95801.78;;;9.67;88.95
46379;BME280;32084;42.254;22.744;2023-02-28T07:58:16;95794.22;;;9.72;89.46
46379;BME280;32084;42.254;22.744;2023-02-28T08:00:42;95794.34;;;9.80;89.75
46379;BME280;32084;42.254;22.744;2023-02-28T08:03:11;95795.75;;;10.04;88.85
46379;BME280;32084;42.254;22.744;2023-02-28T08:05:38;95800.78;;;10.26;86.88
46379;BME280;32084;42.254;22.744;2023-02-28T08:08:04;95797.13;;;10.37;85.79
46379;BME280;32084;42.254;22.744;2023-02-28T08:10:30;95799.94;;;10.35;85.73
46379;BME280;32084;42.254;22.744;2023-02-28T08:12:56;95804.97;;;10.48;86.18
46379;BME280;32084;42.254;22.744;2023-02-28T08:15:22;95792.44;;;10.49;85.11
46379;BME280;32084;42.254;22.744;2023-02-28T08:17:48;95793.38;;;10.67;84.95
46379;BME280;32084;42.254;22.744;2023-02-28T08:20:14;95801.97;;;10.71;85.24
46379;BME280;32084;42.254;22.744;2023-02-28T08:32:13;95788.44;;;11.56;78.75
46379;BME280;32084;42.254;22.744;2023-02-28T08:34:39;95786.34;;;11.95;78.89
46379;BME280;32084;42.254;22.744;2023-02-28T09:01:45;95778.09;;;11.43;82.02
46379;BME280;32084;42.254;22.744;2023-02-28T09:04:11;95778.03;;;11.25;79.94
46379;BME280;32084;42.254;22.744;2023-02-28T09:16:42;95781.56;;;11.71;80.16
46379;BME280;32084;42.254;22.744;2023-02-28T09:19:11;95776.41;;;11.78;80.31
46379;BME280;32084;42.254;22.744;2023-02-28T09:21:38;95771.34;;;11.57;77.81
46379;BME280;32084;42.254;22.744;2023-02-28T09:24:04;95775.81;;;11.84;79.48
46379;BME280;32084;42.254;22.744;2023-02-28T09:26:30;95781.19;;;12.02;80.30
46379;BME280;32084;42.254;22.744;2023-02-28T09:28:56;95774.97;;;11.65;79.02
46379;BME280;32084;42.254;22.744;2023-02-28T09:31:25;95771.56;;;11.45;80.06
46379;BME280;32084;42.254;22.744;2023-02-28T09:33:52;95769.72;;;11.28;81.02
46379;BME280;32084;42.254;22.744;2023-02-28T09:36:19;95773.69;;;11.24;81.11
46379;BME280;32084;42.254;22.744;2023-02-28T09:38:45;95783.56;;;11.23;81.78
46379;BME280;32084;42.254;22.744;2023-02-28T09:41:13;95775.63;;;11.31;81.12
46379;BME280;32084;42.254;22.744;2023-02-28T09:43:41;95770.59;;;11.46;80.83
46379;BME280;32084;42.254;22.744;2023-02-28T09:48:44;95764.78;;;11.87;81.43
46379;BME280;32084;42.254;22.744;2023-02-28T09:51:15;95760.63;;;12.28;80.21
46379;BME280;32084;42.254;22.744;2023-02-28T09:53:49;95753.13;;;12.58;76.74
46379;BME280;32084;42.254;22.744;2023-02-28T09:56:18;95750.91;;;12.88;75.20
46379;BME280;32084;42.254;22.744;2023-02-28T10:01:39;95751.88;;;13.21;73.95
46379;BME280;32084;42.254;22.744;2023-02-28T10:04:16;95750.03;;;13.81;70.73
46379;BME280;32084;42.254;22.744;2023-02-28T10:06:51;95742.16;;;14.12;71.68
46379;BME280;32084;42.254;22.744;2023-02-28T10:09:27;95744.81;;;14.20;68.64
46379;BME280;32084;42.254;22.744;2023-02-28T10:11:56;95736.25;;;14.25;70.36
46379;BME280;32084;42.254;22.744;2023-02-28T10:14:24;95728.72;;;14.12;70.91
46379;BME280;32084;42.254;22.744;2023-02-28T10:22:05;95729.25;;;14.88;69.29
46379;BME280;32084;42.254;22.744;2023-02-28T10:24:46;95714.38;;;14.44;67.10
46379;BME280;32084;42.254;22.744;2023-02-28T10:27:16;95714.88;;;14.48;66.54
46379;BME280;32084;42.254;22.744;2023-02-28T10:29:43;95715.53;;;14.50;70.82
46379;BME280;32084;42.254;22.744;2023-02-28T10:32:11;95710.91;;;14.92;67.50
46379;BME280;32084;42.254;22.744;2023-02-28T10:34:38;95705.63;;;15.07;68.23
46379;BME280;32084;42.254;22.744;2023-02-28T10:37:04;95703.44;;;15.10;63.21
46379;BME280;32084;42.254;22.744;2023-02-28T10:39:38;95696.69;;;14.67;65.78
46379;BME280;32084;42.254;22.744;2023-02-28T10:42:05;95691.91;;;14.21;69.08
46379;BME280;32084;42.254;22.744;2023-02-28T10:44:43;95688.69;;;14.09;69.23
46379;BME280;32084;42.254;22.744;2023-02-28T10:47:16;95683.31;;;14.09;70.22
46379;BME280;32084;42.254;22.744;2023-02-28T10:49:49;95677.44;;;14.14;71.12
46379;BME280;32084;42.254;22.744;2023-02-28T10:52:35;95679.09;;;14.31;67.26
46379;BME280;32084;42.254;22.744;2023-02-28T10:55:22;95671.22;;;14.13;68.98
46379;BME280;32084;42.254;22.744;2023-02-28T10:57:48;95679.84;;;14.73;68.84
46379;BME280;32084;42.254;22.744;2023-02-28T11:02:41;95677.81;;;14.75;64.84
46379;BME280;32084;42.254;22.744;2023-02-28T11:07:52;95662.00;;;14.08;66.53
46379;BME280;32084;42.254;22.744;2023-02-28T11:10:20;95660.50;;;13.80;67.46
46379;BME280;32084;42.254;22.744;2023-02-28T11:12:47;95654.13;;;13.65;69.31
46379;BME280;32084;42.254;22.744;2023-02-28T11:15:32;95667.22;;;13.93;70.16
46379;BME280;32084;42.254;22.744;2023-02-28T11:18:08;95658.44;;;14.07;70.29
46379;BME280;32084;42.254;22.744;2023-02-28T11:20:41;95644.63;;;14.35;68.88
46379;BME280;32084;42.254;22.744;2023-02-28T11:23:11;95643.09;;;14.40;67.92
46379;BME280;32084;42.254;22.744;2023-02-28T11:25:39;95648.31;;;14.34;68.14
46379;BME280;32084;42.254;22.744;2023-02-28T11:28:06;95635.78;;;14.10;68.16
46379;BME280;32084;42.254;22.744;2023-02-28T11:30:59;95640.84;;;13.96;70.35
46379;BME280;32084;42.254;22.744;2023-02-28T11:33:29;95638.00;;;13.81;68.00
46379;BME280;32084;42.254;22.744;2023-02-28T11:35:57;95631.63;;;13.74;71.56
46379;BME280;32084;42.254;22.744;2023-02-28T11:38:24;95628.09;;;13.82;71.11
46379;BME280;32084;42.254;22.744;2023-02-28T11:49:10;95623.66;;;14.05;71.00
46379;BME280;32084;42.254;22.744;2023-02-28T11:51:49;95621.13;;;14.20;70.37
46379;BME280;32084;42.254;22.744;2023-02-28T11:56:54;95611.19;;;14.29;71.25
46379;BME280;32084;42.254;22.744;2023-02-28T11:59:27;95611.91;;;14.62;71.02
46379;BME280;32084;42.254;22.744;2023-02-28T12:04:26;95603.97;;;14.21;70.52
46379;BME280;32084;42.254;22.744;2023-02-28T12:10:00;95594.06;;;14.22;70.82
46379;BME280;32084;42.254;22.744;2023-02-28T12:28:03;95583.84;;;14.17;71.20
46379;BME280;32084;42.254;22.744;2023-02-28T12:30:31;95584.03;;;14.08;71.30
46379;BME280;32084;42.254;22.744;2023-02-28T12:33:01;95586.22;;;13.96;71.25
46379;BME280;32084;42.254;22.744;2023-02-28T12:35:49;95586.00;;;14.22;71.17
46379;BME280;32084;42.254;22.744;2023-02-28T12:38:19;95586.31;;;14.27;70.30
46379;BME280;32084;42.254;22.744;2023-02-28T12:40:48;95588.91;;;14.04;69.53
46379;BME280;32084;42.254;22.744;2023-02-28T12:43:17;95574.41;;;14.13;70.92
46379;BME280;32084;42.254;22.744;2023-02-28T12:50:56;95572.66;;;14.37;69.47
46379;BME280;32084;42.254;22.744;2023-02-28T13:03:44;95557.53;;;14.75;70.01
46379;BME280;32084;42.254;22.744;2023-02-28T13:11:30;95550.34;;;14.99;67.78
46379;BME280;32084;42.254;22.744;2023-02-28T13:14:01;95557.28;;;14.85;66.54
46379;BME280;32084;42.254;22.744;2023-02-28T13:16:31;95549.84;;;14.64;66.38
46379;BME280;32084;42.254;22.744;2023-02-28T13:19:15;95549.38;;;14.60;67.10
46379;BME280;32084;42.254;22.744;2023-02-28T13:21:43;95541.59;;;14.66;67.65
46379;BME280;32084;42.254;22.744;2023-02-28T13:24:11;95541.75;;;14.72;66.57
46379;BME280;32084;42.254;22.744;2023-02-28T13:31:48;95535.06;;;14.91;66.04
46379;BME280;32084;42.254;22.744;2023-02-28T13:34:20;95531.41;;;14.84;66.87
46379;BME280;32084;42.254;22.744;2023-02-28T13:36:47;95535.00;;;14.76;68.35
46379;BME280;32084;42.254;22.744;2023-02-28T13:45:18;95529.34;;;14.63;70.53
46379;BME280;32084;42.254;22.744;2023-02-28T13:47:44;95532.16;;;14.70;69.94
46379;BME280;32084;42.254;22.744;2023-02-28T13:55:32;95529.56;;;14.53;70.22
46379;BME280;32084;42.254;22.744;2023-02-28T14:00:35;95529.41;;;14.47;71.16
46379;BME280;32084;42.254;22.744;2023-02-28T14:05:47;95530.38;;;14.54;69.71
46379;BME280;32084;42.254;22.744;2023-02-28T14:08:33;95525.63;;;14.64;70.42
46379;BME280;32084;42.254;22.744;2023-02-28T14:11:08;95530.19;;;14.63;71.39
46379;BME280;32084;42.254;22.744;2023-02-28T14:13:40;95523.78;;;14.56;71.45
46379;BME280;32084;42.254;22.744;2023-02-28T14:16:13;95530.19;;;14.63;71.62
46379;BME280;32084;42.254;22.744;2023-02-28T14:18:50;95521.78;;;14.58;70.87
46379;BME280;32084;42.254;22.744;2023-02-28T14:32:13;95522.66;;;14.19;72.22
46379;BME280;32084;42.254;22.744;2023-02-28T14:37:27;95530.34;;;14.22;71.86
46379;BME280;32084;42.254;22.744;2023-02-28T14:39:55;95529.69;;;14.20;71.62
46379;BME280;32084;42.254;22.744;2023-02-28T14:42:32;95527.38;;;14.09;72.44
46379;BME280;32084;42.254;22.744;2023-02-28T14:45:00;95525.50;;;14.18;72.28
46379;BME280;32084;42.254;22.744;2023-02-28T14:47:28;95529.38;;;14.15;71.19
46379;BME280;32084;42.254;22.744;2023-02-28T14:49:55;95528.56;;;14.06;71.02
46379;BME280;32084;42.254;22.744;2023-02-28T14:52:22;95526.09;;;13.97;71.94
46379;BME280;32084;42.254;22.744;2023-02-28T14:54:56;95530.13;;;13.84;73.49
46379;BME280;32084;42.254;22.744;2023-02-28T14:57:30;95523.78;;;13.77;72.92
46379;BME280;32084;42.254;22.744;2023-02-28T15:00:03;95525.44;;;13.78;72.46
46379;BME280;32084;42.254;22.744;2023-02-28T15:02:31;95517.41;;;13.70;71.08
46379;BME280;32084;42.254;22.744;2023-02-28T15:05:00;95520.97;;;13.46;71.47
46379;BME280;32084;42.254;22.744;2023-02-28T15:07:27;95527.53;;;13.52;71.36
46379;BME280;32084;42.254;22.744;2023-02-28T15:12:41;95530.22;;;13.35;71.67
46379;BME280;32084;42.254;22.744;2023-02-28T15:15:17;95538.56;;;13.24;71.24
46379;BME280;32084;42.254;22.744;2023-02-28T15:17:44;95537.91;;;13.22;70.91
46379;BME280;32084;42.254;22.744;2023-02-28T15:20:12;95541.94;;;13.09;70.83
46379;BME280;32084;42.254;22.744;2023-02-28T15:22:39;95536.91;;;13.06;70.91
46379;BME280;32084;42.254;22.744;2023-02-28T15:25:06;95534.56;;;13.03;70.89
46379;BME280;32084;42.254;22.744;2023-02-28T15:27:44;95527.16;;;12.97;71.15
46379;BME280;32084;42.254;22.744;2023-02-28T15:30:16;95533.72;;;12.95;70.80
46379;BME280;32084;42.254;22.744;2023-02-28T15:32:43;95537.72;;;12.99;70.79
46379;BME280;32084;42.254;22.744;2023-02-28T15:35:17;95533.88;;;12.93;70.33
46379;BME280;32084;42.254;22.744;2023-02-28T15:37:46;95537.22;;;12.95;70.85
46379;BME280;32084;42.254;22.744;2023-02-28T15:40:18;95543.94;;;12.91;70.37
46379;BME280;32084;42.254;22.744;2023-02-28T15:43:02;95543.44;;;12.87;70.66
46379;BME280;32084;42.254;22.744;2023-02-28T15:45:40;95534.91;;;12.92;69.80
46379;BME280;32084;42.254;22.744;2023-02-28T15:48:15;95534.03;;;12.92;69.77
46379;BME280;32084;42.254;22.744;2023-02-28T15:50:42;95545.94;;;12.81;69.87
46379;BME280;32084;42.254;22.744;2023-02-28T15:53:19;95541.56;;;12.80;69.21
46379;BME280;32084;42.254;22.744;2023-02-28T15:55:52;95550.75;;;12.69;69.97
46379;BME280;32084;42.254;22.744;2023-02-28T15:58:19;95550.28;;;12.65;69.73
46379;BME280;32084;42.254;22.744;2023-02-28T16:00:59;95563.50;;;12.67;69.78
46379;BME280;32084;42.254;22.744;2023-02-28T16:03:36;95560.16;;;12.65;69.41
46379;BME280;32084;42.254;22.744;2023-02-28T16:08:42;95564.00;;;12.54;69.00
46379;BME280;32084;42.254;22.744;2023-02-28T16:11:09;95564.50;;;12.58;69.28